sensor_id;sensor_type;location;lat;lon;timestamp;P1;durP1;ratioP1;P2;durP2;ratioP2
27161;SDS011;54464;50.558;9.704;2022-12-17T00:01:21;29.60;;;19.90;;
27161;SDS011;54464;50.558;9.704;2022-12-17T00:04:05;29.53;;;18.73;;
27161;SDS011;54464;50.558;9.704;2022-12-17T00:06:49;30.70;;;18.87;;
27161;SDS011;54464;50.558;9.704;2022-12-17T00:09:34;28.00;;;18.13;;
27161;SDS011;54464;50.558;9.704;2022-12-17T00:12:18;38.60;;;24.87;;
27161;SDS011;54464;50.558;9.704;2022-12-17T00:15:02;42.07;;;25.50;;
27161;SDS011;54464;50.558;9.704;2022-12-17T00:17:46;40.93;;;24.60;;
27161;SDS011;54464;50.558;9.704;2022-12-17T00:20:30;33.87;;;23.10;;
27161;SDS011;54464;50.558;9.704;2022-12-17T00:23:14;31.30;;;21.70;;
27161;SDS011;54464;50.558;9.704;2022-12-17T00:25:58;32.90;;;20.93;;
27161;SDS011;54464;50.558;9.704;2022-12-17T00:28:42;32.73;;;21.03;;
27161;SDS011;54464;50.558;9.704;2022-12-17T00:31:27;35.00;;;21.97;;
27161;SDS011;54464;50.558;9.704;2022-12-17T00:34:11;29.87;;;19.63;;
27161;SDS011;54464;50.558;9.704;2022-12-17T00:36:56;34.43;;;22.07;;
27161;SDS011;54464;50.558;9.704;2022-12-17T00:39:40;31.17;;;19.87;;
27161;SDS011;54464;50.558;9.704;2022-12-17T00:42:24;29.97;;;20.10;;
27161;SDS011;54464;50.558;9.704;2022-12-17T00:45:08;32.00;;;20.73;;
27161;SDS011;54464;50.558;9.704;2022-12-17T00:47:52;29.97;;;20.07;;
27161;SDS011;54464;50.558;9.704;2022-12-17T00:50:36;21.27;;;15.13;;
27161;SDS011;54464;50.558;9.704;2022-12-17T00:53:21;18.87;;;13.03;;
27161;SDS011;54464;50.558;9.704;2022-12-17T00:56:05;25.50;;;17.77;;
27161;SDS011;54464;50.558;9.704;2022-12-17T00:58:49;27.40;;;18.20;;
27161;SDS011;54464;50.558;9.704;2022-12-17T01:01:33;20.13;;;14.10;;
27161;SDS011;54464;50.558;9.704;2022-12-17T01:04:17;19.10;;;12.33;;
27161;SDS011;54464;50.558;9.704;2022-12-17T01:07:02;23.93;;;16.10;;
27161;SDS011;54464;50.558;9.704;2022-12-17T01:09:46;24.17;;;15.63;;
27161;SDS011;54464;50.558;9.704;2022-12-17T01:12:30;22.73;;;15.70;;
27161;SDS011;54464;50.558;9.704;2022-12-17T01:15:14;22.10;;;14.87;;
27161;SDS011;54464;50.558;9.704;2022-12-17T01:17:58;21.00;;;13.67;;
27161;SDS011;54464;50.558;9.704;2022-12-17T01:20:42;14.87;;;11.20;;
27161;SDS011;54464;50.558;9.704;2022-12-17T01:23:26;13.57;;;7.87;;
27161;SDS011;54464;50.558;9.704;2022-12-17T01:26:10;12.70;;;8.20;;
27161;SDS011;54464;50.558;9.704;2022-12-17T01:28:55;15.00;;;9.50;;
27161;SDS011;54464;50.558;9.704;2022-12-17T01:31:40;12.07;;;8.47;;
27161;SDS011;54464;50.558;9.704;2022-12-17T01:34:24;12.83;;;8.90;;
27161;SDS011;54464;50.558;9.704;2022-12-17T01:37:08;15.67;;;9.70;;
27161;SDS011;54464;50.558;9.704;2022-12-17T01:40:03;12.63;;;9.07;;
27161;SDS011;54464;50.558;9.704;2022-12-17T01:42:47;13.10;;;8.60;;
27161;SDS011;54464;50.558;9.704;2022-12-17T01:45:34;16.73;;;9.67;;
27161;SDS011;54464;50.558;9.704;2022-12-17T01:48:23;13.33;;;9.60;;
27161;SDS011;54464;50.558;9.704;2022-12-17T01:51:14;16.57;;;10.47;;
27161;SDS011;54464;50.558;9.704;2022-12-17T01:53:59;15.47;;;9.90;;
27161;SDS011;54464;50.558;9.704;2022-12-17T01:56:44;13.50;;;9.33;;
27161;SDS011;54464;50.558;9.704;2022-12-17T01:59:35;12.47;;;8.43;;
27161;SDS011;54464;50.558;9.704;2022-12-17T02:02:27;12.67;;;8.73;;
27161;SDS011;54464;50.558;9.704;2022-12-17T02:05:11;12.00;;;8.80;;
27161;SDS011;54464;50.558;9.704;2022-12-17T02:08:01;12.80;;;8.80;;
27161;SDS011;54464;50.558;9.704;2022-12-17T02:14:09;12.33;;;8.73;;
27161;SDS011;54464;50.558;9.704;2022-12-17T02:17:01;14.50;;;8.97;;
27161;SDS011;54464;50.558;9.704;2022-12-17T02:25:56;14.10;;;9.80;;
27161;SDS011;54464;50.558;9.704;2022-12-17T02:28:46;14.57;;;9.67;;
27161;SDS011;54464;50.558;9.704;2022-12-17T02:31:33;14.73;;;9.60;;
27161;SDS011;54464;50.558;9.704;2022-12-17T02:34:18;15.33;;;9.87;;
27161;SDS011;54464;50.558;9.704;2022-12-17T02:37:02;15.73;;;10.20;;
27161;SDS011;54464;50.558;9.704;2022-12-17T02:39:47;15.27;;;10.20;;
27161;SDS011;54464;50.558;9.704;2022-12-17T02:42:31;16.07;;;10.30;;
27161;SDS011;54464;50.558;9.704;2022-12-17T02:45:15;18.30;;;10.50;;
27161;SDS011;54464;50.558;9.704;2022-12-17T02:48:01;15.90;;;11.10;;
27161;SDS011;54464;50.558;9.704;2022-12-17T02:50:46;15.23;;;9.43;;
27161;SDS011;54464;50.558;9.704;2022-12-17T02:53:31;15.57;;;10.30;;
27161;SDS011;54464;50.558;9.704;2022-12-17T02:56:16;16.40;;;10.30;;
27161;SDS011;54464;50.558;9.704;2022-12-17T02:59:00;14.80;;;9.97;;
27161;SDS011;54464;50.558;9.704;2022-12-17T03:01:44;16.40;;;9.77;;
27161;SDS011;54464;50.558;9.704;2022-12-17T03:04:28;15.03;;;10.07;;
27161;SDS011;54464;50.558;9.704;2022-12-17T03:07:12;14.43;;;9.33;;
27161;SDS011;54464;50.558;9.704;2022-12-17T03:09:56;13.27;;;9.67;;
27161;SDS011;54464;50.558;9.704;2022-12-17T03:12:40;13.53;;;9.73;;
27161;SDS011;54464;50.558;9.704;2022-12-17T03:15:25;14.77;;;9.80;;
27161;SDS011;54464;50.558;9.704;2022-12-17T03:18:09;16.23;;;10.77;;
27161;SDS011;54464;50.558;9.704;2022-12-17T03:20:53;16.63;;;11.37;;
27161;SDS011;54464;50.558;9.704;2022-12-17T03:23:37;15.70;;;10.70;;
27161;SDS011;54464;50.558;9.704;2022-12-17T03:26:21;15.73;;;10.77;;
27161;SDS011;54464;50.558;9.704;2022-12-17T03:29:05;19.50;;;11.27;;
27161;SDS011;54464;50.558;9.704;2022-12-17T03:31:50;16.63;;;10.90;;
27161;SDS011;54464;50.558;9.704;2022-12-17T03:34:34;16.53;;;11.47;;
27161;SDS011;54464;50.558;9.704;2022-12-17T03:37:18;20.07;;;11.10;;
27161;SDS011;54464;50.558;9.704;2022-12-17T03:40:02;15.13;;;10.63;;
27161;SDS011;54464;50.558;9.704;2022-12-17T03:42:47;16.80;;;11.60;;
27161;SDS011;54464;50.558;9.704;2022-12-17T03:45:31;17.07;;;11.50;;
27161;SDS011;54464;50.558;9.704;2022-12-17T03:48:15;17.73;;;11.27;;
27161;SDS011;54464;50.558;9.704;2022-12-17T03:51:00;18.30;;;11.23;;
27161;SDS011;54464;50.558;9.704;2022-12-17T03:53:44;20.03;;;12.23;;
27161;SDS011;54464;50.558;9.704;2022-12-17T03:56:29;19.50;;;11.27;;
27161;SDS011;54464;50.558;9.704;2022-12-17T03:59:14;19.03;;;11.67;;
27161;SDS011;54464;50.558;9.704;2022-12-17T04:01:58;20.43;;;11.80;;
27161;SDS011;54464;50.558;9.704;2022-12-17T04:04:43;19.47;;;11.00;;
27161;SDS011;54464;50.558;9.704;2022-12-17T04:07:27;18.33;;;11.00;;
27161;SDS011;54464;50.558;9.704;2022-12-17T04:10:11;19.67;;;10.67;;
27161;SDS011;54464;50.558;9.704;2022-12-17T04:12:55;17.83;;;10.87;;
27161;SDS011;54464;50.558;9.704;2022-12-17T04:15:39;24.67;;;11.40;;
27161;SDS011;54464;50.558;9.704;2022-12-17T04:18:23;20.63;;;10.93;;
27161;SDS011;54464;50.558;9.704;2022-12-17T04:21:07;20.67;;;11.87;;
27161;SDS011;54464;50.558;9.704;2022-12-17T04:23:51;19.13;;;10.70;;
27161;SDS011;54464;50.558;9.704;2022-12-17T04:26:35;20.30;;;10.90;;
27161;SDS011;54464;50.558;9.704;2022-12-17T04:29:19;16.67;;;10.93;;
27161;SDS011;54464;50.558;9.704;2022-12-17T04:32:03;18.73;;;11.23;;
27161;SDS011;54464;50.558;9.704;2022-12-17T04:34:48;24.20;;;11.23;;
27161;SDS011;54464;50.558;9.704;2022-12-17T04:37:32;25.57;;;11.87;;
27161;SDS011;54464;50.558;9.704;2022-12-17T04:40:16;16.37;;;9.93;;
27161;SDS011;54464;50.558;9.704;2022-12-17T04:43:10;20.50;;;10.97;;
27161;SDS011;54464;50.558;9.704;2022-12-17T04:45:55;27.80;;;11.87;;
27161;SDS011;54464;50.558;9.704;2022-12-17T04:48:39;22.73;;;11.63;;
27161;SDS011;54464;50.558;9.704;2022-12-17T04:51:24;20.57;;;11.23;;
27161;SDS011;54464;50.558;9.704;2022-12-17T04:54:08;24.00;;;12.00;;
27161;SDS011;54464;50.558;9.704;2022-12-17T04:56:52;21.83;;;11.20;;
27161;SDS011;54464;50.558;9.704;2022-12-17T04:59:37;23.57;;;12.07;;
27161;SDS011;54464;50.558;9.704;2022-12-17T05:02:21;23.77;;;11.57;;
27161;SDS011;54464;50.558;9.704;2022-12-17T05:05:05;25.47;;;11.87;;
27161;SDS011;54464;50.558;9.704;2022-12-17T05:07:53;21.97;;;11.90;;
27161;SDS011;54464;50.558;9.704;2022-12-17T05:10:38;21.90;;;11.23;;
27161;SDS011;54464;50.558;9.704;2022-12-17T05:13:22;26.43;;;10.83;;
27161;SDS011;54464;50.558;9.704;2022-12-17T05:16:07;19.70;;;10.83;;
27161;SDS011;54464;50.558;9.704;2022-12-17T05:18:51;21.77;;;10.60;;
27161;SDS011;54464;50.558;9.704;2022-12-17T05:21:38;17.03;;;10.07;;
27161;SDS011;54464;50.558;9.704;2022-12-17T05:24:22;37.03;;;11.57;;
27161;SDS011;54464;50.558;9.704;2022-12-17T05:27:06;21.30;;;10.73;;
27161;SDS011;54464;50.558;9.704;2022-12-17T05:29:50;23.00;;;11.40;;
27161;SDS011;54464;50.558;9.704;2022-12-17T05:32:34;24.20;;;11.40;;
27161;SDS011;54464;50.558;9.704;2022-12-17T05:35:18;20.57;;;11.13;;
27161;SDS011;54464;50.558;9.704;2022-12-17T05:38:06;21.23;;;12.20;;
27161;SDS011;54464;50.558;9.704;2022-12-17T05:40:54;58.87;;;11.33;;
27161;SDS011;54464;50.558;9.704;2022-12-17T05:43:39;46.17;;;12.10;;
27161;SDS011;54464;50.558;9.704;2022-12-17T05:46:25;29.93;;;11.07;;
27161;SDS011;54464;50.558;9.704;2022-12-17T05:49:10;55.60;;;13.90;;
27161;SDS011;54464;50.558;9.704;2022-12-17T05:51:54;25.63;;;11.67;;
27161;SDS011;54464;50.558;9.704;2022-12-17T05:54:38;33.83;;;12.03;;
27161;SDS011;54464;50.558;9.704;2022-12-17T05:57:22;59.20;;;12.30;;
27161;SDS011;54464;50.558;9.704;2022-12-17T06:00:06;38.37;;;12.50;;
27161;SDS011;54464;50.558;9.704;2022-12-17T06:02:58;31.03;;;12.30;;
27161;SDS011;54464;50.558;9.704;2022-12-17T06:05:43;30.53;;;12.40;;
27161;SDS011;54464;50.558;9.704;2022-12-17T06:08:27;37.63;;;12.90;;
27161;SDS011;54464;50.558;9.704;2022-12-17T06:11:11;27.87;;;12.30;;
27161;SDS011;54464;50.558;9.704;2022-12-17T06:13:55;27.70;;;12.20;;
27161;SDS011;54464;50.558;9.704;2022-12-17T06:16:39;28.47;;;13.87;;
27161;SDS011;54464;50.558;9.704;2022-12-17T06:19:23;31.67;;;12.40;;
27161;SDS011;54464;50.558;9.704;2022-12-17T06:22:07;26.87;;;12.13;;
27161;SDS011;54464;50.558;9.704;2022-12-17T06:24:51;27.43;;;12.83;;
27161;SDS011;54464;50.558;9.704;2022-12-17T06:27:35;42.87;;;11.73;;
27161;SDS011;54464;50.558;9.704;2022-12-17T06:30:19;33.43;;;13.70;;
27161;SDS011;54464;50.558;9.704;2022-12-17T06:33:07;58.23;;;14.23;;
27161;SDS011;54464;50.558;9.704;2022-12-17T06:35:54;48.00;;;12.70;;
27161;SDS011;54464;50.558;9.704;2022-12-17T06:38:40;29.30;;;12.43;;
27161;SDS011;54464;50.558;9.704;2022-12-17T06:41:25;24.77;;;13.10;;
27161;SDS011;54464;50.558;9.704;2022-12-17T06:44:09;29.77;;;12.33;;
27161;SDS011;54464;50.558;9.704;2022-12-17T06:46:53;23.33;;;11.73;;
27161;SDS011;54464;50.558;9.704;2022-12-17T06:49:37;23.63;;;13.20;;
27161;SDS011;54464;50.558;9.704;2022-12-17T06:52:21;28.23;;;12.47;;
27161;SDS011;54464;50.558;9.704;2022-12-17T06:55:05;38.60;;;12.47;;
27161;SDS011;54464;50.558;9.704;2022-12-17T06:57:56;27.80;;;11.77;;
27161;SDS011;54464;50.558;9.704;2022-12-17T07:00:43;32.20;;;11.73;;
27161;SDS011;54464;50.558;9.704;2022-12-17T07:03:28;35.13;;;12.97;;
27161;SDS011;54464;50.558;9.704;2022-12-17T07:06:12;79.20;;;13.43;;
27161;SDS011;54464;50.558;9.704;2022-12-17T07:08:56;23.00;;;11.60;;
27161;SDS011;54464;50.558;9.704;2022-12-17T07:11:40;33.30;;;12.83;;
27161;SDS011;54464;50.558;9.704;2022-12-17T07:14:24;32.70;;;12.37;;
27161;SDS011;54464;50.558;9.704;2022-12-17T07:17:08;35.90;;;13.03;;
27161;SDS011;54464;50.558;9.704;2022-12-17T07:19:53;104.90;;;15.23;;
27161;SDS011;54464;50.558;9.704;2022-12-17T07:22:37;169.10;;;18.90;;
27161;SDS011;54464;50.558;9.704;2022-12-17T07:25:21;96.37;;;16.10;;
27161;SDS011;54464;50.558;9.704;2022-12-17T07:28:05;100.17;;;17.17;;
27161;SDS011;54464;50.558;9.704;2022-12-17T07:30:49;91.33;;;16.27;;
27161;SDS011;54464;50.558;9.704;2022-12-17T07:33:33;53.93;;;16.63;;
27161;SDS011;54464;50.558;9.704;2022-12-17T07:36:17;132.97;;;18.63;;
27161;SDS011;54464;50.558;9.704;2022-12-17T07:39:01;158.60;;;18.17;;
27161;SDS011;54464;50.558;9.704;2022-12-17T07:41:45;79.20;;;15.93;;
27161;SDS011;54464;50.558;9.704;2022-12-17T07:44:29;42.73;;;16.20;;
27161;SDS011;54464;50.558;9.704;2022-12-17T07:47:13;97.97;;;21.33;;
27161;SDS011;54464;50.558;9.704;2022-12-17T07:49:57;61.63;;;16.20;;
27161;SDS011;54464;50.558;9.704;2022-12-17T07:52:41;46.57;;;15.80;;
27161;SDS011;54464;50.558;9.704;2022-12-17T07:55:25;67.77;;;16.97;;
27161;SDS011;54464;50.558;9.704;2022-12-17T07:58:18;88.17;;;17.63;;
27161;SDS011;54464;50.558;9.704;2022-12-17T08:01:06;65.17;;;17.10;;
27161;SDS011;54464;50.558;9.704;2022-12-17T08:03:50;37.80;;;14.60;;
27161;SDS011;54464;50.558;9.704;2022-12-17T08:06:34;28.07;;;14.13;;
27161;SDS011;54464;50.558;9.704;2022-12-17T08:09:18;37.37;;;15.73;;
27161;SDS011;54464;50.558;9.704;2022-12-17T08:12:02;64.80;;;16.40;;
27161;SDS011;54464;50.558;9.704;2022-12-17T08:14:57;36.10;;;15.03;;
27161;SDS011;54464;50.558;9.704;2022-12-17T08:17:41;35.53;;;14.70;;
27161;SDS011;54464;50.558;9.704;2022-12-17T08:20:25;24.80;;;13.10;;
27161;SDS011;54464;50.558;9.704;2022-12-17T08:23:09;25.40;;;13.20;;
27161;SDS011;54464;50.558;9.704;2022-12-17T08:25:53;21.97;;;11.47;;
27161;SDS011;54464;50.558;9.704;2022-12-17T08:28:39;20.90;;;12.50;;
27161;SDS011;54464;50.558;9.704;2022-12-17T08:31:24;19.80;;;11.13;;
27161;SDS011;54464;50.558;9.704;2022-12-17T08:34:08;17.57;;;10.43;;
27161;SDS011;54464;50.558;9.704;2022-12-17T08:36:52;18.10;;;9.73;;
27161;SDS011;54464;50.558;9.704;2022-12-17T08:39:36;33.93;;;17.10;;
27161;SDS011;54464;50.558;9.704;2022-12-17T08:42:20;18.80;;;11.27;;
27161;SDS011;54464;50.558;9.704;2022-12-17T08:45:05;20.70;;;11.67;;
27161;SDS011;54464;50.558;9.704;2022-12-17T08:47:50;22.43;;;12.13;;
27161;SDS011;54464;50.558;9.704;2022-12-17T08:50:34;38.17;;;14.33;;
27161;SDS011;54464;50.558;9.704;2022-12-17T08:53:18;26.00;;;12.33;;
27161;SDS011;54464;50.558;9.704;2022-12-17T08:56:02;28.27;;;13.70;;
27161;SDS011;54464;50.558;9.704;2022-12-17T08:58:46;28.70;;;12.63;;
27161;SDS011;54464;50.558;9.704;2022-12-17T09:01:30;28.63;;;15.70;;
27161;SDS011;54464;50.558;9.704;2022-12-17T09:04:14;24.03;;;12.93;;
27161;SDS011;54464;50.558;9.704;2022-12-17T09:06:58;29.70;;;13.83;;
27161;SDS011;54464;50.558;9.704;2022-12-17T09:09:42;33.30;;;14.13;;
27161;SDS011;54464;50.558;9.704;2022-12-17T09:12:26;24.90;;;13.13;;
27161;SDS011;54464;50.558;9.704;2022-12-17T09:15:10;29.37;;;14.97;;
27161;SDS011;54464;50.558;9.704;2022-12-17T09:17:54;29.03;;;15.43;;
27161;SDS011;54464;50.558;9.704;2022-12-17T09:20:38;31.07;;;17.03;;
27161;SDS011;54464;50.558;9.704;2022-12-17T09:23:22;30.70;;;16.17;;
27161;SDS011;54464;50.558;9.704;2022-12-17T09:26:06;60.47;;;15.83;;
27161;SDS011;54464;50.558;9.704;2022-12-17T09:28:50;31.87;;;15.70;;
27161;SDS011;54464;50.558;9.704;2022-12-17T09:31:35;40.27;;;16.00;;
27161;SDS011;54464;50.558;9.704;2022-12-17T09:34:19;33.00;;;15.03;;
27161;SDS011;54464;50.558;9.704;2022-12-17T09:37:03;34.33;;;16.07;;
27161;SDS011;54464;50.558;9.704;2022-12-17T09:39:47;32.57;;;16.47;;
27161;SDS011;54464;50.558;9.704;2022-12-17T09:45:47;33.57;;;16.80;;
27161;SDS011;54464;50.558;9.704;2022-12-17T09:51:39;27.77;;;13.80;;
27161;SDS011;54464;50.558;9.704;2022-12-17T09:54:33;26.03;;;13.77;;
27161;SDS011;54464;50.558;9.704;2022-12-17T09:57:23;23.97;;;13.23;;
27161;SDS011;54464;50.558;9.704;2022-12-17T10:00:17;24.37;;;12.53;;
27161;SDS011;54464;50.558;9.704;2022-12-17T10:03:03;25.07;;;13.73;;
27161;SDS011;54464;50.558;9.704;2022-12-17T10:05:52;22.20;;;13.03;;
27161;SDS011;54464;50.558;9.704;2022-12-17T10:08:39;23.20;;;12.50;;
27161;SDS011;54464;50.558;9.704;2022-12-17T10:11:28;23.67;;;12.80;;
27161;SDS011;54464;50.558;9.704;2022-12-17T10:14:17;27.90;;;13.90;;
27161;SDS011;54464;50.558;9.704;2022-12-17T10:17:13;31.47;;;14.57;;
27161;SDS011;54464;50.558;9.704;2022-12-17T10:19:57;30.70;;;15.30;;
27161;SDS011;54464;50.558;9.704;2022-12-17T10:22:42;25.57;;;13.43;;
27161;SDS011;54464;50.558;9.704;2022-12-17T10:25:28;21.73;;;13.00;;
27161;SDS011;54464;50.558;9.704;2022-12-17T10:28:14;24.27;;;13.80;;
27161;SDS011;54464;50.558;9.704;2022-12-17T10:31:00;22.40;;;12.73;;
27161;SDS011;54464;50.558;9.704;2022-12-17T10:33:53;22.50;;;12.83;;
27161;SDS011;54464;50.558;9.704;2022-12-17T10:36:43;24.90;;;13.90;;
27161;SDS011;54464;50.558;9.704;2022-12-17T10:39:33;23.33;;;12.80;;
27161;SDS011;54464;50.558;9.704;2022-12-17T10:42:23;21.43;;;12.83;;
27161;SDS011;54464;50.558;9.704;2022-12-17T10:45:18;23.60;;;13.07;;
27161;SDS011;54464;50.558;9.704;2022-12-17T10:51:03;22.90;;;12.73;;
27161;SDS011;54464;50.558;9.704;2022-12-17T10:53:49;22.70;;;13.40;;
27161;SDS011;54464;50.558;9.704;2022-12-17T10:56:34;20.63;;;12.50;;
27161;SDS011;54464;50.558;9.704;2022-12-17T10:59:32;18.60;;;11.27;;
27161;SDS011;54464;50.558;9.704;2022-12-17T11:02:21;20.67;;;12.37;;
27161;SDS011;54464;50.558;9.704;2022-12-17T11:05:12;22.20;;;13.20;;
27161;SDS011;54464;50.558;9.704;2022-12-17T11:08:04;24.13;;;13.80;;
27161;SDS011;54464;50.558;9.704;2022-12-17T11:10:48;22.30;;;13.23;;
27161;SDS011;54464;50.558;9.704;2022-12-17T11:13:35;19.20;;;12.90;;
27161;SDS011;54464;50.558;9.704;2022-12-17T11:16:25;21.07;;;12.40;;
27161;SDS011;54464;50.558;9.704;2022-12-17T11:22:55;19.57;;;11.83;;
27161;SDS011;54464;50.558;9.704;2022-12-17T11:28:35;19.60;;;12.20;;
27161;SDS011;54464;50.558;9.704;2022-12-17T11:34:56;19.47;;;12.53;;
27161;SDS011;54464;50.558;9.704;2022-12-17T11:40:58;21.43;;;12.60;;
27161;SDS011;54464;50.558;9.704;2022-12-17T11:56:32;18.43;;;12.33;;
27161;SDS011;54464;50.558;9.704;2022-12-17T12:05:21;19.53;;;12.70;;
27161;SDS011;54464;50.558;9.704;2022-12-17T12:08:27;17.73;;;11.97;;
27161;SDS011;54464;50.558;9.704;2022-12-17T12:20:09;18.67;;;12.93;;
27161;SDS011;54464;50.558;9.704;2022-12-17T12:26:22;19.93;;;12.73;;
27161;SDS011;54464;50.558;9.704;2022-12-17T12:32:20;18.23;;;12.37;;
27161;SDS011;54464;50.558;9.704;2022-12-17T12:35:18;20.73;;;15.33;;
27161;SDS011;54464;50.558;9.704;2022-12-17T12:38:08;21.13;;;12.77;;
27161;SDS011;54464;50.558;9.704;2022-12-17T12:41:25;19.77;;;13.90;;
27161;SDS011;54464;50.558;9.704;2022-12-17T12:44:50;21.27;;;16.03;;
27161;SDS011;54464;50.558;9.704;2022-12-17T12:50:57;19.43;;;14.23;;
27161;SDS011;54464;50.558;9.704;2022-12-17T12:53:58;17.17;;;11.70;;
27161;SDS011;54464;50.558;9.704;2022-12-17T12:56:53;18.23;;;12.23;;
27161;SDS011;54464;50.558;9.704;2022-12-17T12:59:46;18.20;;;12.27;;
27161;SDS011;54464;50.558;9.704;2022-12-17T13:02:31;19.13;;;12.63;;
27161;SDS011;54464;50.558;9.704;2022-12-17T13:08:02;19.10;;;12.20;;
27161;SDS011;54464;50.558;9.704;2022-12-17T13:10:31;18.30;;;12.13;;
27161;SDS011;54464;50.558;9.704;2022-12-17T13:12:59;19.00;;;12.93;;
27161;SDS011;54464;50.558;9.704;2022-12-17T13:15:36;18.03;;;12.47;;
27161;SDS011;54464;50.558;9.704;2022-12-17T13:18:23;19.07;;;12.03;;
27161;SDS011;54464;50.558;9.704;2022-12-17T13:21:22;15.93;;;11.10;;
27161;SDS011;54464;50.558;9.704;2022-12-17T13:23:50;15.47;;;10.87;;
27161;SDS011;54464;50.558;9.704;2022-12-17T13:26:23;17.93;;;12.53;;
27161;SDS011;54464;50.558;9.704;2022-12-17T13:31:20;16.90;;;11.60;;
27161;SDS011;54464;50.558;9.704;2022-12-17T13:39:51;17.23;;;12.60;;
27161;SDS011;54464;50.558;9.704;2022-12-17T13:42:27;18.90;;;11.80;;
27161;SDS011;54464;50.558;9.704;2022-12-17T13:44:54;16.40;;;11.47;;
27161;SDS011;54464;50.558;9.704;2022-12-17T13:47:26;22.03;;;13.73;;
27161;SDS011;54464;50.558;9.704;2022-12-17T13:49:55;23.67;;;14.07;;
27161;SDS011;54464;50.558;9.704;2022-12-17T13:52:23;27.03;;;15.90;;
27161;SDS011;54464;50.558;9.704;2022-12-17T13:54:51;23.60;;;14.50;;
27161;SDS011;54464;50.558;9.704;2022-12-17T13:57:24;26.07;;;15.03;;
27161;SDS011;54464;50.558;9.704;2022-12-17T13:59:57;23.20;;;14.27;;
27161;SDS011;54464;50.558;9.704;2022-12-17T14:05:00;23.30;;;14.60;;
27161;SDS011;54464;50.558;9.704;2022-12-17T14:07:28;23.97;;;14.33;;
27161;SDS011;54464;50.558;9.704;2022-12-17T14:09:57;21.57;;;14.37;;
27161;SDS011;54464;50.558;9.704;2022-12-17T14:12:23;23.57;;;14.40;;
27161;SDS011;54464;50.558;9.704;2022-12-17T14:15:00;23.23;;;13.67;;
27161;SDS011;54464;50.558;9.704;2022-12-17T14:17:34;21.30;;;14.07;;
27161;SDS011;54464;50.558;9.704;2022-12-17T14:20:04;23.23;;;15.03;;
27161;SDS011;54464;50.558;9.704;2022-12-17T14:25:00;24.57;;;14.53;;
27161;SDS011;54464;50.558;9.704;2022-12-17T14:27:30;24.33;;;14.70;;
27161;SDS011;54464;50.558;9.704;2022-12-17T14:29:58;24.47;;;15.07;;
27161;SDS011;54464;50.558;9.704;2022-12-17T14:32:34;25.07;;;15.47;;
27161;SDS011;54464;50.558;9.704;2022-12-17T14:35:01;22.10;;;14.83;;
27161;SDS011;54464;50.558;9.704;2022-12-17T14:37:27;22.20;;;14.67;;
27161;SDS011;54464;50.558;9.704;2022-12-17T14:40:01;24.17;;;14.93;;
27161;SDS011;54464;50.558;9.704;2022-12-17T14:42:29;31.30;;;15.77;;
27161;SDS011;54464;50.558;9.704;2022-12-17T14:45:03;27.77;;;15.93;;
27161;SDS011;54464;50.558;9.704;2022-12-17T14:47:53;28.17;;;16.73;;
27161;SDS011;54464;50.558;9.704;2022-12-17T14:52:54;33.13;;;18.17;;
27161;SDS011;54464;50.558;9.704;2022-12-17T14:57:53;24.47;;;16.27;;
27161;SDS011;54464;50.558;9.704;2022-12-17T15:00:31;23.63;;;17.60;;
27161;SDS011;54464;50.558;9.704;2022-12-17T15:02:57;24.23;;;16.07;;
27161;SDS011;54464;50.558;9.704;2022-12-17T15:05:23;22.30;;;16.23;;
27161;SDS011;54464;50.558;9.704;2022-12-17T15:07:49;24.53;;;15.33;;
27161;SDS011;54464;50.558;9.704;2022-12-17T15:10:18;22.80;;;15.73;;
27161;SDS011;54464;50.558;9.704;2022-12-17T15:12:44;25.10;;;15.63;;
27161;SDS011;54464;50.558;9.704;2022-12-17T15:15:12;23.37;;;15.23;;
27161;SDS011;54464;50.558;9.704;2022-12-17T15:17:39;25.83;;;15.70;;
27161;SDS011;54464;50.558;9.704;2022-12-17T15:20:06;27.73;;;15.90;;
27161;SDS011;54464;50.558;9.704;2022-12-17T15:22:36;27.63;;;16.87;;
27161;SDS011;54464;50.558;9.704;2022-12-17T15:25:02;30.97;;;17.90;;
27161;SDS011;54464;50.558;9.704;2022-12-17T15:27:28;30.20;;;17.47;;
27161;SDS011;54464;50.558;9.704;2022-12-17T15:29:54;30.60;;;17.60;;
27161;SDS011;54464;50.558;9.704;2022-12-17T15:32:21;32.17;;;19.57;;
27161;SDS011;54464;50.558;9.704;2022-12-17T15:34:48;37.07;;;19.77;;
27161;SDS011;54464;50.558;9.704;2022-12-17T15:37:14;37.43;;;20.40;;
27161;SDS011;54464;50.558;9.704;2022-12-17T15:39:41;47.73;;;23.73;;
27161;SDS011;54464;50.558;9.704;2022-12-17T15:42:07;44.90;;;22.90;;
27161;SDS011;54464;50.558;9.704;2022-12-17T15:44:52;44.83;;;24.33;;
27161;SDS011;54464;50.558;9.704;2022-12-17T15:47:18;44.17;;;25.67;;
27161;SDS011;54464;50.558;9.704;2022-12-17T15:49:44;43.57;;;26.23;;
27161;SDS011;54464;50.558;9.704;2022-12-17T15:52:10;33.87;;;22.77;;
27161;SDS011;54464;50.558;9.704;2022-12-17T15:54:39;38.77;;;22.17;;
27161;SDS011;54464;50.558;9.704;2022-12-17T15:57:07;31.23;;;20.43;;
27161;SDS011;54464;50.558;9.704;2022-12-17T15:59:33;31.73;;;20.07;;
27161;SDS011;54464;50.558;9.704;2022-12-17T16:01:59;27.67;;;17.63;;
27161;SDS011;54464;50.558;9.704;2022-12-17T16:04:25;29.97;;;19.47;;
27161;SDS011;54464;50.558;9.704;2022-12-17T16:06:50;33.00;;;22.03;;
27161;SDS011;54464;50.558;9.704;2022-12-17T16:09:16;32.10;;;21.73;;
27161;SDS011;54464;50.558;9.704;2022-12-17T16:11:42;25.47;;;17.23;;
27161;SDS011;54464;50.558;9.704;2022-12-17T16:14:07;27.23;;;17.53;;
27161;SDS011;54464;50.558;9.704;2022-12-17T16:16:33;35.70;;;21.27;;
27161;SDS011;54464;50.558;9.704;2022-12-17T16:18:59;49.10;;;25.67;;
27161;SDS011;54464;50.558;9.704;2022-12-17T16:21:26;41.60;;;22.77;;
27161;SDS011;54464;50.558;9.704;2022-12-17T16:23:52;27.67;;;17.27;;
27161;SDS011;54464;50.558;9.704;2022-12-17T16:26:18;32.23;;;18.07;;
27161;SDS011;54464;50.558;9.704;2022-12-17T16:28:43;40.40;;;23.70;;
27161;SDS011;54464;50.558;9.704;2022-12-17T16:31:11;39.47;;;23.20;;
27161;SDS011;54464;50.558;9.704;2022-12-17T16:33:39;30.27;;;18.27;;
27161;SDS011;54464;50.558;9.704;2022-12-17T16:36:06;26.90;;;17.13;;
27161;SDS011;54464;50.558;9.704;2022-12-17T16:38:40;26.77;;;16.77;;
27161;SDS011;54464;50.558;9.704;2022-12-17T16:41:17;30.00;;;18.77;;
27161;SDS011;54464;50.558;9.704;2022-12-17T16:43:43;29.50;;;18.67;;
27161;SDS011;54464;50.558;9.704;2022-12-17T16:46:31;32.50;;;21.07;;
27161;SDS011;54464;50.558;9.704;2022-12-17T16:49:18;53.57;;;27.70;;
27161;SDS011;54464;50.558;9.704;2022-12-17T16:51:46;76.17;;;34.40;;
27161;SDS011;54464;50.558;9.704;2022-12-17T16:54:14;45.87;;;25.77;;
27161;SDS011;54464;50.558;9.704;2022-12-17T16:56:42;41.07;;;24.30;;
27161;SDS011;54464;50.558;9.704;2022-12-17T16:59:09;41.87;;;27.53;;
27161;SDS011;54464;50.558;9.704;2022-12-17T17:01:36;39.43;;;26.87;;
27161;SDS011;54464;50.558;9.704;2022-12-17T17:04:06;36.87;;;23.53;;
27161;SDS011;54464;50.558;9.704;2022-12-17T17:06:40;36.73;;;22.50;;
27161;SDS011;54464;50.558;9.704;2022-12-17T17:09:09;31.10;;;21.23;;
27161;SDS011;54464;50.558;9.704;2022-12-17T17:11:35;33.57;;;21.10;;
27161;SDS011;54464;50.558;9.704;2022-12-17T17:14:01;30.43;;;20.40;;
27161;SDS011;54464;50.558;9.704;2022-12-17T17:16:26;32.63;;;21.17;;
27161;SDS011;54464;50.558;9.704;2022-12-17T17:18:53;35.23;;;22.60;;